Flight Track Log - Related Links

Times and Time Zones

All times are in EDT time to prevent confusion due to time zone crossing. See the N770NC flight status page for this flight to view local times or setup timezone preferences in your user account.

Time Position Orientation Groundspeed Altitude Reporting Facility
EDT Latitude Longitude Course Direction KTS MPH feet Rate Location/Type
Mon 12:50:44 PM 33.6536 -84.4806 349° North 441 507 2,200  Level Atlanta Center
Mon 12:51:05 PM 33.6667 -84.5000 309° West 238 274 2,700 2,148 Climbing Atlanta TRACON
Mon 12:52:05 PM 33.6833 -84.5833 284° West 273 314 5,100 2,550 Climbing Atlanta TRACON
Mon 12:53:00 PM 34.0537 -84.5263 349° North  Level FlightAware Approximate
Mon 12:53:05 PM 33.7667 -84.6167 342° North 275 316 7,800  Level Atlanta TRACON
Mon 12:54:00 PM 34.1523 -84.5530 347° North  Level FlightAware Approximate
Mon 12:54:44 PM 33.8847 -84.6069 North 304 350 10,200  Level Atlanta Center
Mon 12:55:00 PM 34.2563 -84.5794 349° North  Level FlightAware Approximate
Mon 12:55:44 PM 33.9831 -84.5875 North 340 391 10,900  Level Atlanta Center
Mon 12:56:00 PM 34.3607 -84.6031 349° North  Level FlightAware Approximate
Mon 12:56:44 PM 34.0978 -84.5831 North 366 421 12,700  Level Atlanta Center
Mon 12:57:44 PM 34.2064 -84.5789 North 381 438 14,600 2,050 Climbing Atlanta Center
Mon 12:58:44 PM 34.3147 -84.5972 352° North 384 442 16,800 2,000 Climbing Atlanta Center
Mon 12:59:44 PM 34.4211 -84.6206 350° North 389 448 18,600 1,750 Climbing Atlanta Center
Mon 01:00:44 PM 34.5294 -84.6414 351° North 389 448 20,300 1,550 Climbing Atlanta Center
Mon 01:01:44 PM 34.6339 -84.6622 351° North 389 448 21,700 1,000 Climbing Atlanta Center
Mon 01:02:44 PM 34.7297 -84.6908 346° North 389 448 22,300 600 Climbing Atlanta Center
Mon 01:03:44 PM 34.8442 -84.7247 346° North 400 460 22,900 650 Climbing Atlanta Center
Mon 01:04:44 PM 34.9631 -84.7611 346° North 413 475 23,600 850 Climbing Atlanta Center
Mon 01:05:44 PM 35.0858 -84.7850 351° North 433 498 24,600 950 Climbing Atlanta Center
Mon 01:06:44 PM 35.2067 -84.8114 350° North 438 504 25,500 800 Climbing Atlanta Center
Mon 01:07:44 PM 35.3278 -84.8356 351° North 443 510 26,200 750 Climbing Atlanta Center
Mon 01:08:44 PM 35.4528 -84.8572 352° North 449 517 27,000 750 Climbing Atlanta Center
Mon 01:09:44 PM 35.5797 -84.8892 348° North 449 517 27,700 650 Climbing Atlanta Center
Mon 01:10:44 PM 35.7047 -84.9186 349° North 449 517 28,300 750 Climbing Atlanta Center
Mon 01:11:44 PM 35.8464 -84.9431 352° North 449 517 29,200 818 Climbing Atlanta Center
Mon 01:12:34 PM 35.9542 -84.9653 351° North 470 541 29,800 703 Climbing Indianapolis Center
Mon 01:13:35 PM 36.0733 -85.0025 346° North 463 533 30,500 732 Climbing Indianapolis Center
Mon 01:14:37 PM 36.1961 -85.0425 345° North 456 525 31,300 629 Climbing Indianapolis Center
Mon 01:15:39 PM 36.3189 -85.0767 347° North 451 519 31,800 -97 Climbing Indianapolis Center
Mon 01:16:41 PM 36.4417 -85.1169 345° North 455 524 31,100 -683 Descending Indianapolis Center
Mon 01:17:42 PM 36.5903 -85.1661 345° North 458 527 30,400 -537 Descending Indianapolis Center
Mon 01:18:44 PM 36.7167 -85.2033 347° North 464 534 30,000 -194 Descending Indianapolis Center
Mon 01:19:46 PM 36.8403 -85.2500 343° North 464 534 30,000  Level Indianapolis Center
Mon 01:20:48 PM 36.9647 -85.2983 343° North 468 539 30,000  Level Indianapolis Center
Mon 01:21:49 PM 37.0936 -85.3219 352° North 471 542 30,000  Level Indianapolis Center
Mon 01:22:51 PM 37.2256 -85.3447 352° North 475 547 30,000  Level Indianapolis Center
Mon 01:23:52 PM 37.3539 -85.3792 348° North 470 541 30,000  Level Indianapolis Center
Mon 01:24:54 PM 37.5039 -85.4208 348° North 472 543 30,000  Level Indianapolis Center
Mon 01:25:56 PM 37.6325 -85.4469 351° North 468 539 30,000  Level Indianapolis Center
Mon 01:26:57 PM 37.7622 -85.4817 348° North 473 544 30,000  Level Indianapolis Center
Mon 01:27:59 PM 37.8750 -85.5097 349° North 474 545 30,000  Level Indianapolis Center
Mon 01:29:01 PM 38.0225 -85.5694 342° North 462 532 30,000  Level Indianapolis Center
Mon 01:30:02 PM 38.1503 -85.5931 352° North 463 533 30,000  Level Indianapolis Center
Mon 01:31:04 PM 38.2819 -85.5992 358° North 470 541 30,000  Level Indianapolis Center
Mon 01:32:06 PM 38.4128 -85.6083 357° North 469 540 30,000  Level Indianapolis Center
Mon 01:33:07 PM 38.5428 -85.6211 356° North 469 540 30,000  Level Indianapolis Center
Mon 01:34:09 PM 38.6908 -85.6256 359° North 473 544 30,000  Level Indianapolis Center
Mon 01:35:11 PM 38.8242 -85.6139 North 479 551 30,000  Level Indianapolis Center
Mon 01:36:12 PM 38.9572 -85.6139 360° North 480 552 30,000  Level Indianapolis Center
Mon 01:37:14 PM 39.0881 -85.6256 356° North 471 542 30,000 -145 Level Indianapolis Center
Mon 01:38:16 PM 39.2175 -85.6342 357° North 469 540 29,700 -435 Descending Indianapolis Center
Mon 01:39:18 PM 39.3500 -85.6289 North 478 550 29,100 -341 Descending Indianapolis Center
Mon 01:40:19 PM 39.5078 -85.6236 North 476 548 29,000 -98 Descending Indianapolis Center
Mon 01:41:21 PM 39.6364 -85.6283 358° North 468 539 28,900 -484 Descending Indianapolis Center
Mon 01:42:23 PM 39.7639 -85.6267 North 464 534 28,000 -878 Descending Indianapolis Center
Mon 01:43:24 PM 39.8919 -85.6219 North 464 534 27,100 -829 Descending Indianapolis Center
Mon 01:44:26 PM 40.0214 -85.6189 North 469 540 26,300 -532 Descending Indianapolis Center
Mon 01:45:28 PM 40.1506 -85.6322 355° North 467 537 26,000 -146 Descending Indianapolis Center
Mon 01:46:29 PM 40.3006 -85.6458 356° North 455 524 26,000 -98 Level Indianapolis Center
Mon 01:47:31 PM 40.4192 -85.6753 349° North 438 504 25,800 -419 Descending Indianapolis Center
Mon 01:47:55 PM 40.4644 -85.6919 344° North 435 501 25,400 -907 Descending Chicago Center
Mon 01:48:57 PM 40.5753 -85.7458 340° North 427 491 24,500 -677 Descending Chicago Center
Mon 01:49:59 PM 40.7069 -85.7686 353° North 438 504 24,000 -435 Descending Chicago Center
Mon 01:51:01 PM 40.8189 -85.8058 346° North 417 480 23,600 -484 Descending Chicago Center
Mon 01:52:03 PM 40.9261 -85.8647 337° Northwest 417 480 23,000 -435 Descending Chicago Center
Mon 01:53:05 PM 41.0306 -85.9253 336° Northwest 412 474 22,700 -581 Descending Chicago Center
Mon 01:54:07 PM 41.0839 -86.0436 301° West 384 442 21,800 -1,113 Descending Chicago Center
Mon 01:55:09 PM 41.1192 -86.1675 291° West 364 419 20,400 -1,500 Descending Chicago Center
Mon 01:56:11 PM 41.1636 -86.3147 292° West 358 412 18,700 -1,500 Descending Chicago Center
Mon 01:57:13 PM 41.2139 -86.4275 301° West 360 414 17,300 -1,355 Descending Chicago Center
Mon 01:58:15 PM 41.2650 -86.5392 301° West 353 406 15,900 -1,452 Descending Chicago Center
Mon 01:59:17 PM 41.3256 -86.6419 308° West 352 405 14,300 -1,452 Descending Chicago Center
Mon 02:00:19 PM 41.4119 -86.6986 334° Northwest 353 406 12,900 -1,113 Descending Chicago Center
Mon 02:01:21 PM 41.5108 -86.7156 353° North 346 398 12,000 -387 Descending Chicago Center
Mon 02:02:23 PM 41.6025 -86.7483 345° North 343 395 12,100  Climbing Chicago Center
Mon 02:03:25 PM 41.7094 -86.7939 342° North 340 391 12,000 -49 Descending Chicago Center
Mon 02:04:26 PM 41.7969 -86.8414 338° Northwest 342 394 12,000  Level Chicago Center
Mon 02:05:28 PM 41.8867 -86.8869 339° North 346 398 12,000 -387 Level Chicago Center
Mon 02:06:30 PM 41.9467 -86.9761 312° West 347 399 11,200 -919 Descending Chicago Center
Mon 02:07:32 PM 41.9678 -87.0953 283° West 334 384 10,100 -677 Descending Chicago Center
Mon 02:08:34 PM 41.9844 -87.2339 279° West 322 371 9,800 -823 Descending Chicago Center
Mon 02:09:36 PM 41.9833 -87.3536 269° West 322 371 8,400 -1,258 Descending Chicago Center
Mon 02:10:38 PM 41.9825 -87.4586 269° West 293 337 7,200 -1,403 Descending Chicago Center
Mon 02:11:40 PM 41.9819 -87.5469 270° West 244 281 5,500 -1,403 Descending Chicago Center
Mon 02:12:42 PM 41.9847 -87.6333 273° West 234 269 4,300 -1,161 Descending Chicago Center

Login

Don't have an account? Register now (free) for customized features, flight alerts, and more!